Terminal Aerodrome Forecast
Issued by NWS

Home | Current Version | Previous Version | Text Only | Print | Product List | Glossary Off
Versions: 1 2 3 4 5 6 7 8 9 10 11 12 13 14 15 16 17 18 19 20 21
000 FTUS41 KGYX 261748 TAFMHT TAF KMHT 261748Z 2618/2718 27012G20KT P6SM BKN040 FM270100 26004KT P6SM SCT250 FM271500 14006KT P6SM BKN070=

USA.gov is the U.S. government's official web portal to all federal, state and local government web resources and services.